EGHILFRD

Guest
Details From EGHI - Southampton
To LFRD - Dinard Pleurtuit-St Malo
Flight Number -
Tags decoded
Created
Modified
Stats Distance 146 nm / 270 km
Max Altitude 0 ft / 0 m
Waypoints 4
Social Downloads 0
Likes 0
Share VATSIM

Download

Looking for another format? Having issues loading an existing format? Contact us
Advertisement - Login to hide

Notes

Requested: EGHI NEDUL AGANO LFRD

Route

EGHI NEDUL AGANO LFRD

ID Type Via Altitude Latitude Longitude Leg Dist Tot Dist Heading (true) Name
O EGHI APT - 0 ft / 0 m 50.95026˚ -1.35681˚ - 0 nm - Southampton
NEDUL FIX - 0 ft / 0 m 50.66611˚ -1.54778˚ 18 nm 18 nm 203° / 203° -
AGANO FIX - 0 ft / 0 m 49.66500˚ -2.00000˚ 62 nm 81 nm 196° / 196° -
O LFRD APT - 0 ft / 0 m 48.58798˚ -2.07992˚ 64 nm 145 nm 183° / 183° Dinard Pleurtuit-St Malo

Altitude Profile

Advertisement - Login to hide

EGHI

Details ICAO EGHI (SOU)
Name Southampton
Region United Kingdom
Timezone Europe/London (UTC+0.0)
Stats Elevation 44 ft / 13 m (AMSL)
Location 50.950255° -1.356806°
Runways 1
Magnetic Variation 0.811° W

METAR

EGHI 171920Z 25006KT 9999 BKN011 09/08 Q1021

Decode

TAF

Not found

Departure Runways

ID Width Length Bearing (true) Bearing (mag) Surface Threshold Offset Overrun Length
02 121 ft / 37 m 5,650 ft / 1,722 m 19.33° 20.14° Asphalt 240 ft / 73 m 0 ft / 0 m
20 121 ft / 37 m 5,650 ft / 1,722 m 199.34° 200.15° Asphalt 144 ft / 44 m 0 ft / 0 m

LFRD

Details ICAO LFRD (DNR)
Name Dinard Pleurtuit-St Malo
Region France
Timezone Europe/Paris (UTC+1.0)
Stats Elevation 216 ft / 66 m (AMSL)
Location 48.587983° -2.079916°
Runways 2
Magnetic Variation 0.797° W

METAR

LFRD 171930Z AUTO 22011KT 9999 BKN047 OVC220 09/07 Q1026 TEMPO RADZ BKN014

Decode

TAF

TAF LFRD 171700Z 1718/1818 22010KT 9999 BKN025 TEMPO 1718/1722 5000 RADZ BKN014 BECMG 1721/1723 4000 RADZ BR BKN010 TEMPO 1722/1807 1500 RADZ BR BKN002 BECMG 1801/1803 28012KT BECMG 1807/1809 02010KT 9999 NSW BKN020 BECMG 1807/1809 02012KT

Decode

Destination Runways

ID Width Length Bearing (true) Bearing (mag) Surface Threshold Offset Overrun Length
12 148 ft / 45 m 4,909 ft / 1,496 m 115.13° 115.93° Asphalt 0 ft / 0 m 0 ft / 0 m
17 148 ft / 45 m 7,199 ft / 2,194 m 170.09° 170.89° Asphalt 0 ft / 0 m 0 ft / 0 m
30 148 ft / 45 m 4,909 ft / 1,496 m 295.14° 295.94° Asphalt 669 ft / 204 m 0 ft / 0 m
35 148 ft / 45 m 7,199 ft / 2,194 m 350.10° 350.90° Asphalt 0 ft / 0 m 0 ft / 0 m

Approach Navaids

Runway Type Ident Frequency Range Bearing (true) Bearing (mag) Slope Elevation
35 Localiser DR 110.75 MHz 27 nm / 50 km 350.08° 350.88° - 216 ft / 66 m (AMSL)
35 Glidescope DR 110.75 MHz 27 nm / 50 km 350.08° 350.88° 3.00° 216 ft / 66 m (AMSL)
35 DME DR 110.75 MHz 27 nm / 50 km - - - 216 ft / 66 m (AMSL)

Popular Alternatives